Página principal
METAR-TAF:

METAR-TAF

Aeroportos :

Niamey, Níger

Aeroporto Internacional Diori Hamani

latitude: 13-29N, longitude: 002-10E, altura: 223 m

Observação actual do tempo

O boletim foi feito há 24 minutos, às 23:00 UTC
Vento 5 kt de es-nordeste
Temperatura 23°C
Humidade 25%
Pressão 1014 hPa
Visibilidade 10 km ou mais
sem nuvens abaixo de 1500 metros e sem cumulonimbus

METAR: DRRN 122300Z 07005KT CAVOK 23/02 Q1014 NOSIG

Hora: 00:24 (23:24 UTC)

Previsão

O boletim foi feito há 6 horas e 24 minutos, às 17:00 UTC
Previsão válida de 12 às 18 UTC a 13 às 24 UTC
Vento 8 kt de es-sudeste
Visibilidade: 6000 m
Temporariamente
de 12 às 18 UTC a 12 às 21 UTC
Visibilidade: 4000 m
poeira extensa
Temporariamente
de 13 às 06 UTC a 13 às 09 UTC
Visibilidade: 4000 m
poeira extensa

TAF: DRRN 121700Z 1218/1324 12008KT 6000 NSC TEMPO 1218/1221 4000 DU TEMPO 1306/1309 4000 DU

Observações e previsões do tempo de mais de 4000 aeroportos (mensagens METAR e TAF).

As estações disponíveis são os pontos amarelos e vermelhos sobre o mapa.

Mova o rato sobre o mapa para ver o nome da estação.

Depois clique no ponto para visualizar as observações e previsões meteorológicas.

Para alterar o mapa : clique nos botões verdes com uma cruz preta para aumentar o zoom; no botão verde com uma pitada de zoom; ou nas setas verdes para mapas adjacentes.


METAR-TAF: